Time;durP1;ratioP1;P1;durP2;ratioP2;P2;SDS_P1;SDS_P2;PMS_P1;PMS_P2;Temp;Humidity;BMP_temperature;BMP_pressure;BME280_temperature;BME280_humidity;BME280_pressure;Samples;Min_cycle;Max_cycle;Signal;HPM_P1;HPM_P2
2022/08/14 00:01:29;;;;;;;10.02;3.83;;;;;;;;;;5093913;28;20111;-79
2022/08/14 00:03:55;;;;;;;9.65;3.90;;;;;;;;;;5093965;28;20027;-79
2022/08/14 00:06:21;;;;;;;6.10;4.22;;;;;;;;;;5075745;28;20032;-79
2022/08/14 00:08:47;;;;;;;6.97;4.40;;;;;;;;;;5093949;28;20024;-80
2022/08/14 00:11:13;;;;;;;10.02;3.92;;;;;;;;;;5093752;28;20114;-80
2022/08/14 00:13:40;;;;;;;5.07;3.83;;;;;;;;;;5094251;28;20030;-79
2022/08/14 00:16:06;;;;;;;6.78;4.00;;;;;;;;;;5075891;28;20082;-80
2022/08/14 00:18:32;;;;;;;6.43;3.92;;;;;;;;;;5093817;28;20027;-79
2022/08/14 00:20:59;;;;;;;8.82;4.07;;;;;;;;;;5093834;28;20115;-80
2022/08/14 00:23:25;;;;;;;5.97;3.90;;;;;;;;;;5078799;28;20369;-80
2022/08/14 00:25:53;;;;;;;8.32;4.10;;;;;;;;;;5113839;28;20404;-79
2022/08/14 00:28:24;;;;;;;7.43;4.40;;;;;;;;;;5114175;28;20091;-80
2022/08/14 00:30:51;;;;;;;9.18;4.38;;;;;;;;;;5113877;28;20028;-79
2022/08/14 00:33:17;;;;;;;5.00;4.20;;;;;;;;;;5113937;28;20473;-80
2022/08/14 00:35:43;;;;;;;10.98;4.30;;;;;;;;;;5113816;28;20466;-80
2022/08/14 00:38:09;;;;;;;8.93;4.15;;;;;;;;;;5095455;28;20020;-80
2022/08/14 00:40:35;;;;;;;8.93;4.47;;;;;;;;;;5113898;28;20177;-79
2022/08/14 00:43:01;;;;;;;8.63;4.15;;;;;;;;;;5114147;28;20027;-79
2022/08/14 00:45:27;;;;;;;8.65;4.50;;;;;;;;;;5113813;28;20019;-80
2022/08/14 00:47:53;;;;;;;6.30;4.10;;;;;;;;;;5113979;28;20031;-80
2022/08/14 00:50:22;;;;;;;9.73;4.53;;;;;;;;;;5114138;28;20039;-80
2022/08/14 00:52:51;;;;;;;6.07;4.30;;;;;;;;;;5113680;28;20540;-80
2022/08/14 00:55:18;;;;;;;11.40;4.78;;;;;;;;;;5113523;28;20051;-79
2022/08/14 00:57:44;;;;;;;11.60;4.63;;;;;;;;;;5114053;28;20026;-80
2022/08/14 01:00:13;;;;;;;12.23;4.82;;;;;;;;;;5113550;28;20024;-79
2022/08/14 01:02:42;;;;;;;9.90;4.43;;;;;;;;;;5113830;28;20027;-79
2022/08/14 01:05:22;;;;;;;6.75;4.57;;;;;;;;;;5113819;28;20012;-80
2022/08/14 01:07:49;;;;;;;6.07;4.30;;;;;;;;;;5095785;28;20023;-79
2022/08/14 01:10:16;;;;;;;7.15;4.47;;;;;;;;;;5113921;28;20054;-80
2022/08/14 01:12:42;;;;;;;9.57;4.60;;;;;;;;;;5113944;28;20020;-79
2022/08/14 01:15:09;;;;;;;9.55;4.70;;;;;;;;;;5113833;28;20024;-80
2022/08/14 01:23:09;;;;;;;7.57;4.55;;;;;;;;;;5116174;28;20493;-80
2022/08/14 01:25:36;;;;;;;5.50;4.25;;;;;;;;;;5117290;28;20088;-80
2022/08/14 01:28:02;;;;;;;10.05;4.53;;;;;;;;;;5117303;28;20115;-79
2022/08/14 01:30:31;;;;;;;9.75;4.95;;;;;;;;;;5117254;28;20027;-79
2022/08/14 01:32:57;;;;;;;8.88;5.07;;;;;;;;;;5117306;28;20023;-80
2022/08/14 01:35:27;;;;;;;7.00;4.90;;;;;;;;;;5098647;28;20038;-80
2022/08/14 01:37:53;;;;;;;7.30;4.95;;;;;;;;;;5117120;28;20022;-80
2022/08/14 01:40:22;;;;;;;7.75;4.60;;;;;;;;;;5116669;28;20031;-79
2022/08/14 01:42:48;;;;;;;6.28;4.55;;;;;;;;;;5098478;28;20024;-80
2022/08/14 01:45:14;;;;;;;8.23;5.03;;;;;;;;;;5116871;28;20023;-80
2022/08/14 01:47:40;;;;;;;6.28;4.50;;;;;;;;;;5117040;28;20019;-80
2022/08/14 01:50:07;;;;;;;7.07;4.70;;;;;;;;;;5116717;28;20024;-79
2022/08/14 01:52:35;;;;;;;6.03;4.65;;;;;;;;;;5116689;28;20039;-79
2022/08/14 01:55:01;;;;;;;7.63;4.80;;;;;;;;;;5116864;28;20040;-80
2022/08/14 01:57:28;;;;;;;8.13;4.63;;;;;;;;;;5116624;28;20098;-79
2022/08/14 01:59:55;;;;;;;10.48;5.10;;;;;;;;;;5116464;28;20027;-80
2022/08/14 02:02:22;;;;;;;5.53;4.40;;;;;;;;;;5116820;28;20030;-80
2022/08/14 02:04:48;;;;;;;5.50;4.40;;;;;;;;;;5116669;28;20114;-80
2022/08/14 02:07:14;;;;;;;7.18;5.00;;;;;;;;;;5098293;28;20020;-79
2022/08/14 02:09:41;;;;;;;6.63;4.88;;;;;;;;;;5116893;28;20027;-80
2022/08/14 02:12:08;;;;;;;7.65;4.82;;;;;;;;;;5116505;28;20350;-79
2022/08/14 02:14:35;;;;;;;5.63;4.68;;;;;;;;;;5116493;28;20024;-80
2022/08/14 02:17:01;;;;;;;9.48;5.03;;;;;;;;;;5116024;28;20461;-79
2022/08/14 02:19:30;;;;;;;6.45;4.97;;;;;;;;;;5116294;28;20028;-80
2022/08/14 02:21:57;;;;;;;7.97;4.95;;;;;;;;;;5116030;28;20076;-79
2022/08/14 02:24:24;;;;;;;11.30;5.30;;;;;;;;;;5104363;28;20016;-79
2022/08/14 02:26:52;;;;;;;7.22;5.47;;;;;;;;;;5095603;28;20057;-79
2022/08/14 02:29:21;;;;;;;8.10;4.88;;;;;;;;;;5077363;28;20111;-79
2022/08/14 02:31:48;;;;;;;7.57;5.15;;;;;;;;;;5095535;28;20035;-80
2022/08/14 02:34:14;;;;;;;6.38;5.05;;;;;;;;;;5095786;28;20034;-79
2022/08/14 02:36:41;;;;;;;10.73;5.00;;;;;;;;;;5095588;28;20028;-80
2022/08/14 02:39:09;;;;;;;10.05;5.72;;;;;;;;;;5095902;28;20494;-79
2022/08/14 02:41:35;;;;;;;8.77;5.00;;;;;;;;;;5095448;28;20034;-80
2022/08/14 02:44:02;;;;;;;10.98;5.53;;;;;;;;;;5095396;28;20360;-80
2022/08/14 02:46:32;;;;;;;6.65;5.40;;;;;;;;;;5095377;28;20028;-80
2022/08/14 02:48:58;;;;;;;8.57;5.55;;;;;;;;;;5100472;28;20019;-80
2022/08/14 02:51:24;;;;;;;16.67;5.53;;;;;;;;;;5097077;28;20073;-80
2022/08/14 02:53:51;;;;;;;6.40;5.35;;;;;;;;;;5115489;28;20181;-80
2022/08/14 02:56:20;;;;;;;7.80;5.32;;;;;;;;;;5115590;28;20016;-80
2022/08/14 02:58:48;;;;;;;7.50;5.60;;;;;;;;;;5115806;28;20070;-79
2022/08/14 03:01:15;;;;;;;7.65;5.30;;;;;;;;;;5115594;28;20020;-80
2022/08/14 03:03:41;;;;;;;6.63;5.10;;;;;;;;;;5115582;28;20454;-80
2022/08/14 03:06:08;;;;;;;10.55;5.47;;;;;;;;;;5115352;28;20339;-80
2022/08/14 03:08:36;;;;;;;8.27;5.25;;;;;;;;;;5115617;28;20093;-79
2022/08/14 03:11:05;;;;;;;6.90;5.60;;;;;;;;;;5115233;28;20043;-80
2022/08/14 03:13:33;;;;;;;10.07;5.78;;;;;;;;;;5115350;28;20019;-80
2022/08/14 03:15:59;;;;;;;14.60;5.90;;;;;;;;;;5115361;28;20023;-80
2022/08/14 03:18:27;;;;;;;9.40;5.40;;;;;;;;;;5115594;28;20043;-80
2022/08/14 03:20:53;;;;;;;7.65;5.57;;;;;;;;;;5114901;28;20028;-80
2022/08/14 03:23:19;;;;;;;9.77;5.40;;;;;;;;;;5114931;28;20027;-80
2022/08/14 03:25:46;;;;;;;9.68;5.70;;;;;;;;;;5114951;28;20030;-80
2022/08/14 03:28:13;;;;;;;7.85;5.38;;;;;;;;;;5114964;28;20023;-80
2022/08/14 03:30:39;;;;;;;8.63;5.38;;;;;;;;;;5115096;28;20054;-79
2022/08/14 03:33:06;;;;;;;8.23;5.50;;;;;;;;;;5114900;28;20032;-80
2022/08/14 03:35:33;;;;;;;11.73;6.38;;;;;;;;;;5114874;28;20023;-80
2022/08/14 03:38:09;;;;;;;9.32;5.70;;;;;;;;;;5096427;28;20358;-80
2022/08/14 03:40:39;;;;;;;11.05;5.47;;;;;;;;;;5114669;28;20026;-80
2022/08/14 03:43:06;;;;;;;9.90;6.13;;;;;;;;;;5114686;28;20020;-79
2022/08/14 03:45:34;;;;;;;8.50;6.25;;;;;;;;;;5114559;28;20027;-80
2022/08/14 03:48:01;;;;;;;9.60;6.20;;;;;;;;;;5114549;28;20023;-79
2022/08/14 03:50:28;;;;;;;8.90;5.97;;;;;;;;;;5114810;28;20031;-80
2022/08/14 03:52:54;;;;;;;8.65;5.97;;;;;;;;;;5114216;28;20077;-80
2022/08/14 03:55:20;;;;;;;7.18;5.55;;;;;;;;;;5114332;28;20887;-80
2022/08/14 03:57:46;;;;;;;7.63;6.10;;;;;;;;;;5114325;28;20030;-80
2022/08/14 04:00:12;;;;;;;8.68;5.93;;;;;;;;;;5114451;28;20020;-79
2022/08/14 04:02:40;;;;;;;10.52;6.40;;;;;;;;;;5114374;28;20027;-80
2022/08/14 04:05:07;;;;;;;7.28;5.70;;;;;;;;;;5114150;28;20024;-80
2022/08/14 04:07:33;;;;;;;9.45;6.30;;;;;;;;;;5113974;28;20020;-80
2022/08/14 04:10:00;;;;;;;8.38;6.15;;;;;;;;;;5114390;28;20027;-79
2022/08/14 04:12:26;;;;;;;10.90;6.13;;;;;;;;;;5114051;28;20417;-80
2022/08/14 04:14:52;;;;;;;27.90;7.18;;;;;;;;;;5095893;28;20054;-80
2022/08/14 04:17:19;;;;;;;13.35;6.32;;;;;;;;;;5114260;28;20110;-79
2022/08/14 04:19:46;;;;;;;8.57;6.07;;;;;;;;;;5114025;28;20823;-80
2022/08/14 04:22:12;;;;;;;8.40;6.00;;;;;;;;;;5113929;28;20019;-80
2022/08/14 04:24:38;;;;;;;10.60;6.53;;;;;;;;;;5113981;28;20431;-79
2022/08/14 04:27:07;;;;;;;9.30;6.28;;;;;;;;;;5113881;28;20055;-80
2022/08/14 04:29:36;;;;;;;8.57;6.13;;;;;;;;;;5114166;28;20444;-79
2022/08/14 04:32:02;;;;;;;10.57;7.03;;;;;;;;;;5113720;28;20019;-80
2022/08/14 04:34:28;;;;;;;11.43;6.15;;;;;;;;;;5114002;28;20032;-80
2022/08/14 04:45:09;;;;;;;10.82;6.45;;;;;;;;;;5115186;28;20082;-79
2022/08/14 04:50:20;;;;;;;9.20;6.80;;;;;;;;;;5128182;28;20145;-80
2022/08/14 04:52:48;;;;;;;13.98;7.20;;;;;;;;;;5134233;28;20035;-80
2022/08/14 04:55:14;;;;;;;12.77;7.25;;;;;;;;;;5134179;28;20043;-80
2022/08/14 04:57:41;;;;;;;9.00;6.72;;;;;;;;;;5136314;27;20027;-80
2022/08/14 05:00:07;;;;;;;12.70;7.68;;;;;;;;;;5136160;27;20023;-80
2022/08/14 05:02:34;;;;;;;9.50;7.00;;;;;;;;;;5117733;28;20073;-80
2022/08/14 05:05:00;;;;;;;10.85;7.40;;;;;;;;;;5117884;28;20436;-80
2022/08/14 05:07:26;;;;;;;9.13;7.43;;;;;;;;;;5117792;28;20015;-79
2022/08/14 05:09:52;;;;;;;9.32;7.38;;;;;;;;;;5117682;28;20019;-79
2022/08/14 05:12:18;;;;;;;9.38;6.97;;;;;;;;;;5117503;28;20038;-79
2022/08/14 05:14:45;;;;;;;11.20;7.18;;;;;;;;;;5117502;28;20031;-80
2022/08/14 05:17:12;;;;;;;10.70;7.00;;;;;;;;;;5117582;28;20054;-79
2022/08/14 05:19:38;;;;;;;10.80;7.63;;;;;;;;;;5099709;28;20027;-79
2022/08/14 05:22:04;;;;;;;14.02;7.35;;;;;;;;;;5117190;28;20019;-79
2022/08/14 05:24:31;;;;;;;9.15;7.15;;;;;;;;;;5116437;28;20519;-76
2022/08/14 05:26:58;;;;;;;11.02;6.60;;;;;;;;;;5124174;27;20102;-75
2022/08/14 05:29:24;;;;;;;10.60;7.13;;;;;;;;;;5116505;28;20026;-75
2022/08/14 05:31:50;;;;;;;8.88;7.15;;;;;;;;;;5116234;28;20061;-75
2022/08/14 05:34:17;;;;;;;8.55;7.25;;;;;;;;;;5125551;27;20030;-75
2022/08/14 05:36:43;;;;;;;14.32;7.00;;;;;;;;;;5123662;27;20031;-76
2022/08/14 05:39:09;;;;;;;9.35;6.75;;;;;;;;;;5124716;27;20042;-76
2022/08/14 05:41:35;;;;;;;9.85;7.28;;;;;;;;;;5127188;27;20034;-76
2022/08/14 05:44:01;;;;;;;11.13;7.30;;;;;;;;;;5116098;28;20023;-75
2022/08/14 05:46:27;;;;;;;11.75;7.18;;;;;;;;;;5115915;28;20019;-76
2022/08/14 05:48:55;;;;;;;10.07;6.65;;;;;;;;;;5115899;28;20019;-75
2022/08/14 05:51:21;;;;;;;15.13;7.63;;;;;;;;;;5115762;28;20074;-75
2022/08/14 05:53:47;;;;;;;11.07;6.50;;;;;;;;;;5115302;28;20045;-75
2022/08/14 05:56:13;;;;;;;10.82;7.20;;;;;;;;;;5114089;28;20024;-75
2022/08/14 05:58:39;;;;;;;9.18;6.78;;;;;;;;;;5114882;28;20477;-76
2022/08/14 06:01:06;;;;;;;13.15;7.22;;;;;;;;;;5114332;28;20073;-76
2022/08/14 06:03:32;;;;;;;12.35;8.15;;;;;;;;;;5114559;28;20016;-75
2022/08/14 06:05:58;;;;;;;8.77;7.18;;;;;;;;;;5114644;28;20085;-75
2022/08/14 06:08:25;;;;;;;10.80;7.20;;;;;;;;;;5114072;28;20053;-75
2022/08/14 06:10:53;;;;;;;10.45;7.22;;;;;;;;;;5114456;28;20027;-75
2022/08/14 06:13:19;;;;;;;12.30;7.68;;;;;;;;;;5118150;28;20027;-75
2022/08/14 06:15:46;;;;;;;14.15;7.15;;;;;;;;;;5128978;28;20031;-75
2022/08/14 06:18:12;;;;;;;15.38;6.75;;;;;;;;;;5121782;28;20019;-75
2022/08/14 06:20:38;;;;;;;10.38;6.93;;;;;;;;;;5120891;28;20030;-76
2022/08/14 06:23:05;;;;;;;14.10;7.18;;;;;;;;;;5130914;28;20043;-75
2022/08/14 06:25:31;;;;;;;8.90;6.28;;;;;;;;;;5130330;28;20467;-75
2022/08/14 06:27:57;;;;;;;8.05;6.78;;;;;;;;;;5134507;28;20164;-74
2022/08/14 06:30:26;;;;;;;14.32;6.90;;;;;;;;;;5132352;28;20011;-74
2022/08/14 06:32:52;;;;;;;10.23;6.85;;;;;;;;;;5114088;28;20030;-75
2022/08/14 06:35:22;;;;;;;14.80;6.78;;;;;;;;;;5113128;28;20027;-77
2022/08/14 06:37:49;;;;;;;9.27;6.93;;;;;;;;;;5122444;28;20029;-77
2022/08/14 06:40:18;;;;;;;11.27;6.82;;;;;;;;;;5124838;28;20027;-77
2022/08/14 06:42:44;;;;;;;9.63;6.80;;;;;;;;;;5122432;28;20457;-77
2022/08/14 06:45:10;;;;;;;15.65;6.90;;;;;;;;;;5126769;28;20098;-77
2022/08/14 06:47:38;;;;;;;13.88;6.85;;;;;;;;;;5124403;28;20346;-77
2022/08/14 06:50:05;;;;;;;14.10;6.97;;;;;;;;;;5125788;28;20287;-77
2022/08/14 06:52:31;;;;;;;8.73;6.55;;;;;;;;;;5125713;28;20034;-77
2022/08/14 06:54:58;;;;;;;13.55;6.57;;;;;;;;;;5080797;27;1189216;-77
2022/08/14 06:57:25;;;;;;;14.52;6.70;;;;;;;;;;5129035;27;20031;-77
2022/08/14 06:59:51;;;;;;;8.40;6.40;;;;;;;;;;5128016;27;20050;-76
2022/08/14 07:07:47;;;;;;;10.75;5.90;;;;;;;;;;5114745;27;20153;-77
2022/08/14 07:10:13;;;;;;;8.90;5.75;;;;;;;;;;5126080;27;20611;-77
2022/08/14 07:12:39;;;;;;;10.88;6.18;;;;;;;;;;5125267;27;20015;-77
2022/08/14 07:15:06;;;;;;;10.77;6.05;;;;;;;;;;5123261;27;20028;-77
2022/08/14 07:17:32;;;;;;;8.88;6.03;;;;;;;;;;5123158;27;20019;-77
2022/08/14 07:19:58;;;;;;;9.80;6.03;;;;;;;;;;5120448;27;20012;-77
2022/08/14 07:22:24;;;;;;;8.70;5.75;;;;;;;;;;5122537;27;20031;-77
2022/08/14 07:24:50;;;;;;;6.43;5.32;;;;;;;;;;5102361;27;20114;-77
2022/08/14 07:27:16;;;;;;;10.85;5.57;;;;;;;;;;5123083;27;20023;-77
2022/08/14 07:29:42;;;;;;;7.95;5.80;;;;;;;;;;5122518;27;20027;-77
2022/08/14 07:32:10;;;;;;;6.88;5.55;;;;;;;;;;5119101;27;20015;-77
2022/08/14 07:34:36;;;;;;;7.53;5.75;;;;;;;;;;5116554;27;20461;-76
2022/08/14 07:37:02;;;;;;;14.70;5.50;;;;;;;;;;5121926;27;20061;-77
2022/08/14 07:39:28;;;;;;;6.43;5.13;;;;;;;;;;5117463;27;20103;-76
2022/08/14 07:41:54;;;;;;;8.18;5.10;;;;;;;;;;5131204;27;20385;-77
2022/08/14 07:44:20;;;;;;;8.52;5.55;;;;;;;;;;5134651;27;20362;-77
2022/08/14 07:46:46;;;;;;;6.93;4.80;;;;;;;;;;5134226;27;20019;-77
2022/08/14 07:49:13;;;;;;;6.20;5.03;;;;;;;;;;5117420;27;20460;-77
2022/08/14 07:51:39;;;;;;;8.95;5.18;;;;;;;;;;5123090;27;20149;-77
2022/08/14 07:54:06;;;;;;;6.05;5.10;;;;;;;;;;5095779;28;20048;-77
2022/08/14 07:56:32;;;;;;;6.10;4.47;;;;;;;;;;5093072;28;20020;-77
2022/08/14 07:58:58;;;;;;;5.82;5.10;;;;;;;;;;5092015;28;20020;-77
2022/08/14 08:01:25;;;;;;;8.27;4.70;;;;;;;;;;5093699;28;20020;-77
2022/08/14 08:03:51;;;;;;;8.60;5.32;;;;;;;;;;5089574;28;20016;-77
2022/08/14 08:06:17;;;;;;;9.05;4.80;;;;;;;;;;5093178;28;20486;-77
2022/08/14 08:08:43;;;;;;;5.97;4.78;;;;;;;;;;5092404;28;20016;-77
2022/08/14 08:11:11;;;;;;;8.85;4.95;;;;;;;;;;5092301;28;20062;-77
2022/08/14 08:13:40;;;;;;;5.90;4.70;;;;;;;;;;5090826;28;20102;-76
2022/08/14 08:16:07;;;;;;;5.43;4.75;;;;;;;;;;5092339;28;20020;-76
2022/08/14 08:18:33;;;;;;;10.02;4.85;;;;;;;;;;5113347;28;20446;-77
2022/08/14 08:20:59;;;;;;;9.57;4.68;;;;;;;;;;5102051;28;20047;-77
2022/08/14 08:23:27;;;;;;;12.38;4.70;;;;;;;;;;5073014;28;20031;-77
2022/08/14 08:25:54;;;;;;;6.57;4.75;;;;;;;;;;5075436;28;20024;-77
2022/08/14 08:28:26;;;;;;;5.57;4.47;;;;;;;;;;5074770;28;20021;-79
2022/08/14 08:31:00;;;;;;;6.57;4.28;;;;;;;;;;5073300;28;20099;-79
2022/08/14 08:33:27;;;;;;;8.77;4.90;;;;;;;;;;5073498;28;20107;-79
2022/08/14 08:35:57;;;;;;;8.10;4.43;;;;;;;;;;5073339;28;20021;-78
2022/08/14 08:38:24;;;;;;;11.80;4.80;;;;;;;;;;5074754;28;20471;-79
2022/08/14 08:40:52;;;;;;;6.82;5.10;;;;;;;;;;5094804;28;20125;-79
2022/08/14 08:43:22;;;;;;;9.35;4.38;;;;;;;;;;5096296;28;20020;-79
2022/08/14 08:46:01;;;;;;;14.02;4.28;;;;;;;;;;5096355;28;20048;-78
2022/08/14 08:48:29;;;;;;;7.38;4.45;;;;;;;;;;5095905;28;20016;-79
2022/08/14 08:50:56;;;;;;;6.55;4.65;;;;;;;;;;5093642;28;20032;-79
2022/08/14 08:53:22;;;;;;;6.35;4.65;;;;;;;;;;5101494;28;20024;-79
2022/08/14 08:55:49;;;;;;;9.20;4.40;;;;;;;;;;5103874;28;20101;-79
2022/08/14 08:58:17;;;;;;;6.78;4.70;;;;;;;;;;5093611;28;20446;-79
2022/08/14 09:00:49;;;;;;;6.22;4.32;;;;;;;;;;5093362;28;20035;-79
2022/08/14 09:03:16;;;;;;;8.27;4.80;;;;;;;;;;5093685;28;20082;-79
2022/08/14 09:05:51;;;;;;;10.02;4.32;;;;;;;;;;5093861;28;20052;-79
2022/08/14 09:08:18;;;;;;;10.43;4.50;;;;;;;;;;5093916;28;20016;-79
2022/08/14 09:10:46;;;;;;;7.03;4.82;;;;;;;;;;5093505;28;20386;-79
2022/08/14 09:13:12;;;;;;;9.68;4.60;;;;;;;;;;5107514;28;20027;-79
2022/08/14 09:15:39;;;;;;;8.38;4.60;;;;;;;;;;5093499;28;20032;-79
2022/08/14 09:18:06;;;;;;;6.75;4.47;;;;;;;;;;5093267;28;20028;-79
2022/08/14 09:20:32;;;;;;;7.07;4.55;;;;;;;;;;5092998;28;20105;-78
2022/08/14 09:22:58;;;;;;;4.85;4.30;;;;;;;;;;5092721;28;20111;-79
2022/08/14 09:25:24;;;;;;;7.75;4.70;;;;;;;;;;5092399;28;20047;-78
2022/08/14 09:27:50;;;;;;;5.95;4.50;;;;;;;;;;5092330;28;20020;-78
2022/08/14 09:30:17;;;;;;;10.68;5.10;;;;;;;;;;5092246;28;20087;-78
2022/08/14 09:32:54;;;;;;;7.57;4.63;;;;;;;;;;5091997;28;20031;-78
2022/08/14 09:35:26;;;;;;;6.10;4.30;;;;;;;;;;5092529;28;20402;-78
2022/08/14 09:38:19;;;;;;;6.20;4.55;;;;;;;;;;5094803;28;20024;-78
2022/08/14 09:40:45;;;;;;;10.98;5.15;;;;;;;;;;5086618;28;20035;-78
2022/08/14 09:43:38;;;;;;;7.07;4.35;;;;;;;;;;5098526;28;20012;-78
2022/08/14 09:46:07;;;;;;;5.60;4.20;;;;;;;;;;5076357;28;20039;-79
2022/08/14 09:48:33;;;;;;;6.22;4.70;;;;;;;;;;5110522;28;20019;-79
2022/08/14 09:51:00;;;;;;;7.22;4.57;;;;;;;;;;5102093;28;20414;-79
2022/08/14 09:53:43;;;;;;;6.35;4.13;;;;;;;;;;5096185;28;20034;-79
2022/08/14 09:56:10;;;;;;;4.70;4.20;;;;;;;;;;5083760;28;20044;-79
2022/08/14 09:58:37;;;;;;;8.02;4.35;;;;;;;;;;5099931;28;20111;-80
2022/08/14 10:01:17;;;;;;;4.88;4.10;;;;;;;;;;5096317;28;20063;-78
2022/08/14 10:03:48;;;;;;;12.23;4.60;;;;;;;;;;5096446;28;20031;-79
2022/08/14 10:06:16;;;;;;;8.27;3.60;;;;;;;;;;5095496;28;20028;-78
2022/08/14 10:08:45;;;;;;;4.63;3.63;;;;;;;;;;5095965;28;20024;-79
2022/08/14 10:11:16;;;;;;;6.68;4.20;;;;;;;;;;5096751;28;20028;-81
2022/08/14 10:13:43;;;;;;;7.27;3.73;;;;;;;;;;5096376;28;20123;-79
2022/08/14 10:16:09;;;;;;;9.10;4.05;;;;;;;;;;5095806;28;20090;-79
2022/08/14 10:18:36;;;;;;;6.20;3.40;;;;;;;;;;5096198;28;20528;-79
2022/08/14 10:21:03;;;;;;;6.40;3.75;;;;;;;;;;5096230;28;20032;-79
2022/08/14 10:23:41;;;;;;;7.05;3.58;;;;;;;;;;5095907;28;20021;-79
2022/08/14 10:26:08;;;;;;;7.28;3.63;;;;;;;;;;5096009;28;20027;-79
2022/08/14 10:28:41;;;;;;;4.68;3.55;;;;;;;;;;5096087;28;20024;-79
2022/08/14 10:31:33;;;;;;;6.00;3.60;;;;;;;;;;5095945;28;20077;-79
2022/08/14 10:33:59;;;;;;;;;;;;;;;;;;5089456;28;20058;-79
2022/08/14 10:36:26;;;;;;;6.50;3.60;;;;;;;;;;5105680;28;19953;-80
2022/08/14 10:38:57;;;;;;;3.72;3.15;;;;;;;;;;5099581;28;20024;-80
2022/08/14 10:41:33;;;;;;;6.60;3.80;;;;;;;;;;5095806;28;20350;-80
2022/08/14 10:44:07;;;;;;;4.88;3.40;;;;;;;;;;5095323;28;20110;-78
2022/08/14 10:46:41;;;;;;;5.65;3.20;;;;;;;;;;5094948;28;20044;-79
2022/08/14 10:49:15;;;;;;;6.38;3.40;;;;;;;;;;5095001;28;20020;-78
2022/08/14 10:51:41;;;;;;;5.55;3.40;;;;;;;;;;5094744;28;20043;-79
2022/08/14 10:54:08;;;;;;;6.22;3.60;;;;;;;;;;5100746;27;20051;-78
2022/08/14 10:56:34;;;;;;;5.47;3.45;;;;;;;;;;5094747;28;20024;-78
2022/08/14 10:59:04;;;;;;;10.65;3.08;;;;;;;;;;5095194;28;20024;-77
2022/08/14 11:01:34;;;;;;;7.93;3.97;;;;;;;;;;5070119;28;20080;-78
2022/08/14 11:04:00;;;;;;;5.68;3.20;;;;;;;;;;5094682;28;20361;-78
2022/08/14 11:06:29;;;;;;;7.70;2.83;;;;;;;;;;5094223;28;20020;-78
2022/08/14 11:08:55;;;;;;;5.25;3.10;;;;;;;;;;5094233;28;20438;-78
2022/08/14 11:11:24;;;;;;;4.32;3.45;;;;;;;;;;5094600;28;20050;-78
2022/08/14 11:13:50;;;;;;;3.40;2.90;;;;;;;;;;5094766;28;20062;-78
2022/08/14 11:16:17;;;;;;;6.85;3.03;;;;;;;;;;5094840;28;20015;-79
2022/08/14 11:18:45;;;;;;;6.13;3.15;;;;;;;;;;5094228;28;20012;-79
2022/08/14 11:21:14;;;;;;;4.55;2.92;;;;;;;;;;5076309;28;20342;-79
2022/08/14 11:23:40;;;;;;;5.28;3.15;;;;;;;;;;5094177;28;20075;-79
2022/08/14 11:26:07;;;;;;;4.20;3.10;;;;;;;;;;5076114;28;20024;-79
2022/08/14 11:28:34;;;;;;;7.53;3.28;;;;;;;;;;5094193;28;20336;-79
2022/08/14 11:31:02;;;;;;;4.03;2.97;;;;;;;;;;5094300;28;20024;-79
2022/08/14 11:33:31;;;;;;;5.30;3.30;;;;;;;;;;5093916;28;20027;-76
2022/08/14 11:36:01;;;;;;;6.05;3.00;;;;;;;;;;5093715;28;20020;-77
2022/08/14 11:38:28;;;;;;;5.90;3.10;;;;;;;;;;5094086;28;20020;-78
2022/08/14 11:40:56;;;;;;;4.85;3.50;;;;;;;;;;5094121;28;20048;-79
2022/08/14 11:43:23;;;;;;;6.00;3.22;;;;;;;;;;5094136;28;20456;-79
2022/08/14 11:45:50;;;;;;;10.68;3.38;;;;;;;;;;5093732;28;20020;-79
2022/08/14 11:48:16;;;;;;;3.58;2.78;;;;;;;;;;5093823;28;20024;-79
2022/08/14 11:50:42;;;;;;;6.68;2.97;;;;;;;;;;5094269;28;20032;-79
2022/08/14 11:53:19;;;;;;;6.07;3.53;;;;;;;;;;5093738;28;20035;-78
2022/08/14 11:55:45;;;;;;;5.22;3.15;;;;;;;;;;5073454;28;20045;-79
2022/08/14 11:58:12;;;;;;;4.30;2.80;;;;;;;;;;5073411;28;20032;-79
2022/08/14 12:00:52;;;;;;;4.53;3.30;;;;;;;;;;5073236;28;20028;-79
2022/08/14 12:03:18;;;;;;;6.63;3.15;;;;;;;;;;5073470;28;20020;-79
2022/08/14 12:05:45;;;;;;;3.72;3.30;;;;;;;;;;5080239;28;20052;-77
2022/08/14 12:08:11;;;;;;;6.22;3.22;;;;;;;;;;5088834;28;20032;-77
2022/08/14 12:10:39;;;;;;;5.45;3.30;;;;;;;;;;5075037;28;20036;-74
2022/08/14 12:13:15;;;;;;;4.50;3.20;;;;;;;;;;5093803;28;20074;-76
2022/08/14 12:15:42;;;;;;;5.05;3.20;;;;;;;;;;5073327;28;20374;-78
2022/08/14 12:18:08;;;;;;;6.13;3.08;;;;;;;;;;5078314;28;20032;-79
2022/08/14 12:20:36;;;;;;;4.47;3.40;;;;;;;;;;5093092;28;20043;-78
2022/08/14 12:23:04;;;;;;;5.05;3.00;;;;;;;;;;5093566;28;20024;-79
2022/08/14 12:25:30;;;;;;;7.18;3.50;;;;;;;;;;5086311;28;20106;-78
2022/08/14 12:27:59;;;;;;;4.50;3.25;;;;;;;;;;5093422;28;20035;-79
2022/08/14 12:30:26;;;;;;;4.15;2.92;;;;;;;;;;5093462;28;20477;-79
2022/08/14 12:32:54;;;;;;;3.42;2.85;;;;;;;;;;5093098;28;20098;-78
2022/08/14 12:35:20;;;;;;;4.85;3.20;;;;;;;;;;5092755;28;20020;-78
2022/08/14 12:37:47;;;;;;;5.93;3.00;;;;;;;;;;5087810;28;20027;-78
2022/08/14 12:40:15;;;;;;;5.75;3.38;;;;;;;;;;5106337;28;20103;-79
2022/08/14 12:42:43;;;;;;;3.58;2.75;;;;;;;;;;5093113;28;20046;-80
2022/08/14 12:45:13;;;;;;;3.47;3.17;;;;;;;;;;5093315;28;20047;-79
2022/08/14 12:47:41;;;;;;;3.70;3.25;;;;;;;;;;5083010;28;20016;-80
2022/08/14 12:50:07;;;;;;;6.03;2.92;;;;;;;;;;5093373;28;20046;-79
2022/08/14 12:52:35;;;;;;;2.85;2.63;;;;;;;;;;5093190;28;20106;-79
2022/08/14 12:55:03;;;;;;;8.13;2.80;;;;;;;;;;5092957;28;20071;-79
2022/08/14 12:57:33;;;;;;;8.15;3.90;;;;;;;;;;5092316;28;20130;-77
2022/08/14 13:00:16;;;;;;;5.13;2.90;;;;;;;;;;5092975;28;20036;-78
2022/08/14 13:02:42;;;;;;;8.45;3.70;;;;;;;;;;5093012;28;20033;-79
2022/08/14 13:05:10;;;;;;;6.40;3.22;;;;;;;;;;5092748;28;20409;-79
2022/08/14 13:07:38;;;;;;;6.75;3.65;;;;;;;;;;5090712;28;20066;-80
2022/08/14 13:10:05;;;;;;;3.83;3.42;;;;;;;;;;5074557;28;20382;-81
2022/08/14 13:12:31;;;;;;;6.40;3.00;;;;;;;;;;5067607;28;20071;-82
2022/08/14 13:14:58;;;;;;;5.75;3.40;;;;;;;;;;5072884;28;20347;-79
2022/08/14 13:17:25;;;;;;;3.72;3.20;;;;;;;;;;5073773;28;20108;-77
2022/08/14 13:19:55;;;;;;;4.18;3.10;;;;;;;;;;5093089;28;20036;-76
2022/08/14 13:22:26;;;;;;;5.47;3.47;;;;;;;;;;5098766;28;20024;-77
2022/08/14 13:24:52;;;;;;;6.70;2.85;;;;;;;;;;5098129;28;20012;-77
2022/08/14 13:27:22;;;;;;;5.43;3.17;;;;;;;;;;5080114;28;20032;-77
2022/08/14 13:29:51;;;;;;;5.15;3.08;;;;;;;;;;5097502;28;20012;-77
2022/08/14 13:32:17;;;;;;;4.90;3.03;;;;;;;;;;5097839;28;20024;-77
2022/08/14 13:34:44;;;;;;;5.80;3.05;;;;;;;;;;5080152;28;20024;-77
2022/08/14 13:37:11;;;;;;;4.20;3.13;;;;;;;;;;5097206;28;20794;-77
2022/08/14 13:39:37;;;;;;;5.82;3.20;;;;;;;;;;5097245;28;20028;-78
2022/08/14 13:42:07;;;;;;;6.78;3.50;;;;;;;;;;5097000;28;20052;-78
2022/08/14 13:44:34;;;;;;;5.47;3.38;;;;;;;;;;5097760;28;20044;-78
2022/08/14 13:47:05;;;;;;;6.53;3.33;;;;;;;;;;5097686;28;20090;-79
2022/08/14 13:49:31;;;;;;;15.57;3.67;;;;;;;;;;5097592;28;20088;-79
2022/08/14 13:51:58;;;;;;;4.88;3.45;;;;;;;;;;5097749;28;20040;-79
2022/08/14 13:54:24;;;;;;;5.20;3.60;;;;;;;;;;5098180;28;20123;-79
2022/08/14 13:56:50;;;;;;;6.40;3.80;;;;;;;;;;5099009;28;20028;-79
2022/08/14 13:59:16;;;;;;;3.60;3.20;;;;;;;;;;5098760;28;20028;-79
2022/08/14 14:01:44;;;;;;;3.80;3.13;;;;;;;;;;5098593;28;20039;-78
2022/08/14 14:04:20;;;;;;;5.85;3.55;;;;;;;;;;5096285;28;20020;-78
2022/08/14 14:06:48;;;;;;;4.13;3.05;;;;;;;;;;5098089;28;20031;-78
2022/08/14 14:09:34;;;;;;;5.90;3.42;;;;;;;;;;5095989;28;20024;-78
2022/08/14 14:12:00;;;;;;;7.43;3.25;;;;;;;;;;5095330;28;20051;-78
2022/08/14 14:14:27;;;;;;;4.10;3.30;;;;;;;;;;5096044;28;20028;-78
2022/08/14 14:16:54;;;;;;;5.88;3.60;;;;;;;;;;5096248;28;20016;-78
2022/08/14 14:19:24;;;;;;;4.63;3.40;;;;;;;;;;5094627;28;20457;-78
2022/08/14 14:21:50;;;;;;;5.30;3.53;;;;;;;;;;5096196;28;20082;-78
2022/08/14 14:24:17;;;;;;;4.40;3.70;;;;;;;;;;5096095;28;20051;-78
2022/08/14 14:26:48;;;;;;;4.22;3.78;;;;;;;;;;5096225;28;20020;-78
2022/08/14 14:29:14;;;;;;;4.32;3.65;;;;;;;;;;5095893;28;20339;-78
2022/08/14 14:31:40;;;;;;;7.50;3.38;;;;;;;;;;5095788;28;20358;-79
2022/08/14 14:34:10;;;;;;;3.63;3.20;;;;;;;;;;5096051;28;20028;-80
2022/08/14 14:36:36;;;;;;;4.38;3.20;;;;;;;;;;5097054;28;20028;-80
2022/08/14 14:39:05;;;;;;;3.55;3.05;;;;;;;;;;5096265;28;20024;-80
2022/08/14 14:41:33;;;;;;;5.20;3.30;;;;;;;;;;5098020;28;20077;-79
2022/08/14 14:44:00;;;;;;;3.40;3.03;;;;;;;;;;5102051;28;20032;-80
2022/08/14 14:46:31;;;;;;;4.05;3.22;;;;;;;;;;5082764;28;20024;-80
2022/08/14 14:48:59;;;;;;;7.20;3.42;;;;;;;;;;5095133;28;20025;-80
2022/08/14 14:51:25;;;;;;;3.50;2.90;;;;;;;;;;5095114;28;20363;-79
2022/08/14 14:53:52;;;;;;;7.20;3.40;;;;;;;;;;5099174;27;20111;-79
2022/08/14 14:56:19;;;;;;;6.97;3.20;;;;;;;;;;5133588;27;20076;-82
2022/08/14 14:58:45;;;;;;;6.07;3.50;;;;;;;;;;5117990;27;20027;-82
2022/08/14 15:01:13;;;;;;;5.13;3.38;;;;;;;;;;5113609;27;20027;-82
2022/08/14 15:03:44;;;;;;;4.50;3.25;;;;;;;;;;5113221;28;20024;-83
2022/08/14 15:06:11;;;;;;;3.05;2.75;;;;;;;;;;5114965;28;20065;-82